Souderton, PA (18964)

9:14 AM EST op 08 februari 2016 (GMT -0500)
Elroy | | Change Station
CLOSE
Current Station
Persoonlijk weerstation
Location: Souderton, PA
Geometrische hoogte: 358 ft
Nabije weerstations

Hoogte 358 ft 40.28 °N, 75.33 °W | Updated 7 minutes ago

Geheel bewolkt
Geheel bewolkt
35.6 °F
Voelt als 32 °F
N
4.0
Wind Variabel Wind van noord
Gusts 5.0 mijl/u

Vandaag
Hoog -- | Laag -- °F
--% Kans op neerslag
Gisteren
Hoog -- | Laag -- °F
Precip. -- inches
Druk 29.80 inches
Zicht 10.0 mijlen
Wolken Geheel bewolkt 2700 ft
Gevoelstemperatuur 32 °F
Dauwpunt 28 °F
Vochtigheid 74%
Neerslag 0.00 inches
Dikte sneeuw Niet beschikbaar.
7:03 AM 5:27 PM
Afnemende halvemaan, 0% visible
METAR KUKT 081355Z AUTO 01006KT 10SM OVC027 02/M03 A2980 RMK AO1
Druk 29.80 inches
Zicht 10.0 mijlen
Wolken Geheel bewolkt 2700 ft
Gevoelstemperatuur 32 °F
Dauwpunt 28 °F
Vochtigheid 74%
Neerslag 0.00 inches
Dikte sneeuw Niet beschikbaar.
7:03 AM 5:27 PM
Afnemende halvemaan, 0% visible
METAR KUKT 081355Z AUTO 01006KT 10SM OVC027 02/M03 A2980 RMK AO1

10-Day Weather Forecast

Almanac

Astronomie

Feb. 08, 2016 Opkomst Ondergang
Werkelijke tijd
Burgerlijke schemering
Nautische schemering
Astronomische schemering
Maan
Golflengte van het zichtbare licht
Daglengte
Tomorrow will be .
, % of the Moon is Illuminated

Extremen vandaag

State Highs State Lows

Community

WunderPhotos

Upload Photos

1,891,437 foto’s ge-upload!

WunderBlog® & News

Nearby

Luchtkwaliteit

  Luchtkwaliteit LK-index Verontreinigende stof
Not available.

Dikte sneeuw

Station Depth Geometrische hoogte

Aardbevingen

Stad Distance Mag. Time & Date
Minimum magnitude displayed is 2.5.

Watertemperatuur langs de kust

Plaats Temperatuur

Stations

Nabije weerstations

Locatie station Temp. Gevoelstemperatuur Dauwpunt Vochtigheid Wind Precip. Hoogte Geactualiseerd Type
                   

Watches & Warnings

There are currently no watches in effect.